Lavieen Rose — 3FKN — position and weather

sailwx.info

Track history (hours):
 
Tides and Currents Weather Stations Pressure Air Temp Water Temp Dewpoint Dewpoint Depression Visibility Wind Speed Wind Dir Waves Ship Positions

Lavieen Rose

Last reported at 2018-Jun-04 04:26 UTC. Time now 2018-Jun-22 03:52 UTC.
Position N 01°27' E 103°11'.
Warning: this ship's position is 17 days out of date.

Length 179 m; draft 7.5 m.

Type: Cargo ship. MMSI: 357092000.

Date/timePositionNaut miles runAvg speedWind from/ knotsBaromVisibWave heightAir tempDewpointWater temp
2018-Jun-04 04:26N 01°27' E 103°11'611.4
2018-Jun-04 03:54N 01°23' E 103°15'511.9
2018-Jun-04 03:30N 01°20' E 103°19'612.4
2018-Jun-04 03:00N 01°16' E 103°23'612.3
2018-Jun-04 02:30N 01°14' E 103°29'611.9
2018-Jun-04 02:00N 01°12' E 103°35'612.0
2018-Jun-04 01:30N 01°11' E 103°40'5 9.9
2018-Jun-04 01:00N 01°09' E 103°45'5 9.4
2018-Jun-04 00:30N 01°11' E 103°49'4 8.8
2018-Jun-04 00:00N 01°13' E 103°53'2 3.0
2018-Jun-03 23:26N 01°15' E 103°53'0 0.1
2018-Jun-03 22:59N 01°15' E 103°53'0 0.0
2018-Jun-03 22:29N 01°15' E 103°53'0 0.1
2018-Jun-03 21:56N 01°15' E 103°53'0 0.1
2018-Jun-03 21:29N 01°15' E 103°53'0 0.0
2018-Jun-03 20:47N 01°15' E 103°53'0 0.1
2018-Jun-03 20:29N 01°15' E 103°53'0 0.0
2018-Jun-03 19:58N 01°15' E 103°53'0 0.1
2018-Jun-03 19:19N 01°15' E 103°53'0 0.0
2018-Jun-03 18:59N 01°15' E 103°53'0 0.0
2018-Jun-03 18:26N 01°15' E 103°53'0 0.1
2018-Jun-03 17:59N 01°15' E 103°53'0 0.1
2018-Jun-03 17:29N 01°15' E 103°53'0 0.2
2018-Jun-03 16:59N 01°15' E 103°53'0 0.0
2018-Jun-03 16:29N 01°15' E 103°53'0 0.0
2018-Jun-03 15:59N 01°15' E 103°53'0 0.0
2018-Jun-03 15:22N 01°15' E 103°53'0 0.2
2018-Jun-03 14:59N 01°15' E 103°53'1 1.3
2018-Jun-03 14:30N 01°14' E 103°53'3 5.9
2018-Jun-03 14:00N 01°14' E 103°56'511.0
2018-Jun-03 13:30N 01°16' E 104°01'4 8.9
2018-Jun-03 13:00N 01°16' E 104°06'4 8.0
2018-Jun-03 12:30N 01°17' E 104°10'5 8.6
2018-Jun-03 11:59N 01°18' E 104°14'613.3
2018-Jun-03 11:30N 01°19' E 104°20'712.9
2018-Jun-03 10:55N 01°24' E 104°26'612.2
2018-Jun-03 10:27N 01°28' E 104°30'  
2018-May-25 15:24N 31°35' E 135°14'610.8
2018-May-25 14:51N 31°39' E 135°19'3110.9
2018-May-25 11:59N 32°00' E 135°46'  
Track history (hours):
 
Tides and Currents Weather Stations Pressure Air Temp Water Temp Dewpoint Dewpoint Depression Visibility Wind Speed Wind Dir Waves Ship Positions

Lavieen Rose

Last reported at 2018-Jun-04 04:26 UTC. Time now 2018-Jun-22 03:52 UTC.
Position N 01°27' E 103°11'.
Warning: this ship's position is 17 days out of date.

Length 179 m; draft 7.5 m.

Type: Cargo ship. MMSI: 357092000.

Date/timePositionNaut miles runAvg speedWind from/ knotsBaromVisibWave heightAir tempDewpointWater temp
2018-Jun-04 04:26N 01°27' E 103°11'611.4
2018-Jun-04 03:54N 01°23' E 103°15'511.9
2018-Jun-04 03:30N 01°20' E 103°19'612.4
2018-Jun-04 03:00N 01°16' E 103°23'612.3
2018-Jun-04 02:30N 01°14' E 103°29'611.9
2018-Jun-04 02:00N 01°12' E 103°35'612.0
2018-Jun-04 01:30N 01°11' E 103°40'5 9.9
2018-Jun-04 01:00N 01°09' E 103°45'5 9.4
2018-Jun-04 00:30N 01°11' E 103°49'4 8.8
2018-Jun-04 00:00N 01°13' E 103°53'2 3.0
2018-Jun-03 23:26N 01°15' E 103°53'0 0.1
2018-Jun-03 22:59N 01°15' E 103°53'0 0.0
2018-Jun-03 22:29N 01°15' E 103°53'0 0.1
2018-Jun-03 21:56N 01°15' E 103°53'0 0.1
2018-Jun-03 21:29N 01°15' E 103°53'0 0.0
2018-Jun-03 20:47N 01°15' E 103°53'0 0.1
2018-Jun-03 20:29N 01°15' E 103°53'0 0.0
2018-Jun-03 19:58N 01°15' E 103°53'0 0.1
2018-Jun-03 19:19N 01°15' E 103°53'0 0.0
2018-Jun-03 18:59N 01°15' E 103°53'0 0.0
2018-Jun-03 18:26N 01°15' E 103°53'0 0.1
2018-Jun-03 17:59N 01°15' E 103°53'0 0.1
2018-Jun-03 17:29N 01°15' E 103°53'0 0.2
2018-Jun-03 16:59N 01°15' E 103°53'0 0.0
2018-Jun-03 16:29N 01°15' E 103°53'0 0.0
2018-Jun-03 15:59N 01°15' E 103°53'0 0.0
2018-Jun-03 15:22N 01°15' E 103°53'0 0.2
2018-Jun-03 14:59N 01°15' E 103°53'1 1.3
2018-Jun-03 14:30N 01°14' E 103°53'3 5.9
2018-Jun-03 14:00N 01°14' E 103°56'511.0
2018-Jun-03 13:30N 01°16' E 104°01'4 8.9
2018-Jun-03 13:00N 01°16' E 104°06'4 8.0
2018-Jun-03 12:30N 01°17' E 104°10'5 8.6
2018-Jun-03 11:59N 01°18' E 104°14'613.3
2018-Jun-03 11:30N 01°19' E 104°20'712.9
2018-Jun-03 10:55N 01°24' E 104°26'612.2
2018-Jun-03 10:27N 01°28' E 104°30'  
2018-May-25 15:24N 31°35' E 135°14'610.8
2018-May-25 14:51N 31°39' E 135°19'3110.9
2018-May-25 11:59N 32°00' E 135°46'  

Dump ship's entire track history